メインページ
METAR-TAF:

METAR-TAF

空港 :

エルサルバドル, エルサルバドル

エルサルバドル国際空港

緯度: 13-26N, 経度: 089-03W, 海抜: 25m

現時点の気象観測

当レポートは1時間3分前の00:50(UTC)に作成
西の風 6kt
気温 29°C
湿度 79%
気圧 1011 hPa
視程10km以上
高度3000ftの雲はほとんどない

METAR: MSLP 260050Z 27006KT 230V0300 9999 FEW030 29/25 Q1010 A2984 NOSIG

時間: 19:53 (01:53 UTC)

予報

当レポートは10時間28分前の15:25(UTC)に作成
予報は25日の 18時(UTC)から 26日の 18時(UTC)まで有効
南西の風 8kt
視程10km以上
高度2300ftの雲は散在している
高度3700ftの雲はほとんどない, 積乱雲.
25日の 20時(UTC)から 25日の 24時(UTC)まで一時的に
激しい雷雨
26日の 0000時(UTC)から
変向風 2kt
高度2300ftの雲はほとんどない
高度6000ftの雲は散在している
26日の 04時(UTC)から 26日の 07時(UTC)まで一時的に
視程: 2000m
高度2300ftの千切れ雲あり
高度3300ftの千切れ雲あり, 積乱雲.
高度4300ftの曇り
激しい雷雨, 大雨
26日の 07時(UTC)から 26日の 09時(UTC)まで徐々に
北東の風 5kt
視程10km以上
高度2300ftの雲はほとんどない
高度4000ftの雲はほとんどない, 積乱雲.
高度6000ftの千切れ雲あり
26日の 0900時(UTC)から
高度2300ftの雲はほとんどない
高度6000ftの雲は散在している

TAF: MSLP 251525Z 2518/2618 22008KT 9999 SCT023 FEW037CB TX32/2518Z TN23/2610Z TEMPO 2520/2524 TS FM260000 VRB02KT FEW023 FEW37CB SCT060 TEMPO 2604/2607 0406G20KT 2000 +TSRA BKN023 BKN033CB OVC043 BECMG 2607/2609 04005KT 9999 RA FEW023 FEW040CB BKN060 FM260900 FEW023 SCT060

4,000以上の空港の気象観測と天気予報(METAR報とTAF報)

利用可能な観測所は地図上に黄色い丸と赤い丸で示す。

丸の上にカーソルを重ねると観測所名を参照できる。

次にクリックすると気象観測と天気予報を参照できる。

マップの切り替え:黒色「×」印の緑ボタンをクリックして拡大、「-」印の緑ボタンをクリックして縮小、緑色の三角印をクリックして隣りの地図に切り替え


METAR-TAF: